sensor_id;sensor_type;location;lat;lon;timestamp;P1;durP1;ratioP1;P2;durP2;ratioP2
2476;SDS011;1249;51.270;6.756;2023-03-15T00:00:51;69.33;;;64.10;;
2476;SDS011;1249;51.270;6.756;2023-03-15T00:03:19;60.90;;;56.77;;
2476;SDS011;1249;51.270;6.756;2023-03-15T00:05:48;78.33;;;73.23;;
2476;SDS011;1249;51.270;6.756;2023-03-15T00:08:16;76.27;;;70.70;;
2476;SDS011;1249;51.270;6.756;2023-03-15T00:10:44;76.83;;;71.60;;
2476;SDS011;1249;51.270;6.756;2023-03-15T00:13:12;67.13;;;62.13;;
2476;SDS011;1249;51.270;6.756;2023-03-15T00:15:45;68.40;;;63.60;;
2476;SDS011;1249;51.270;6.756;2023-03-15T00:18:13;58.20;;;54.30;;
2476;SDS011;1249;51.270;6.756;2023-03-15T00:20:40;52.47;;;48.33;;
2476;SDS011;1249;51.270;6.756;2023-03-15T00:23:07;66.93;;;62.70;;
2476;SDS011;1249;51.270;6.756;2023-03-15T00:25:34;81.90;;;76.20;;
2476;SDS011;1249;51.270;6.756;2023-03-15T00:28:01;60.47;;;56.10;;
2476;SDS011;1249;51.270;6.756;2023-03-15T00:30:28;83.53;;;76.60;;
2476;SDS011;1249;51.270;6.756;2023-03-15T00:32:56;60.77;;;56.30;;
2476;SDS011;1249;51.270;6.756;2023-03-15T00:35:23;61.00;;;57.17;;
2476;SDS011;1249;51.270;6.756;2023-03-15T00:37:52;47.90;;;44.07;;
2476;SDS011;1249;51.270;6.756;2023-03-15T00:40:20;54.87;;;50.47;;
2476;SDS011;1249;51.270;6.756;2023-03-15T00:42:47;51.40;;;47.73;;
2476;SDS011;1249;51.270;6.756;2023-03-15T00:45:15;76.07;;;71.27;;
2476;SDS011;1249;51.270;6.756;2023-03-15T00:47:42;59.47;;;55.27;;
2476;SDS011;1249;51.270;6.756;2023-03-15T00:50:11;55.67;;;51.73;;
2476;SDS011;1249;51.270;6.756;2023-03-15T00:52:37;45.87;;;43.20;;
2476;SDS011;1249;51.270;6.756;2023-03-15T00:55:08;57.63;;;52.83;;
2476;SDS011;1249;51.270;6.756;2023-03-15T00:57:38;74.87;;;69.10;;
2476;SDS011;1249;51.270;6.756;2023-03-15T01:00:05;49.30;;;45.93;;
2476;SDS011;1249;51.270;6.756;2023-03-15T01:02:34;70.70;;;64.73;;
2476;SDS011;1249;51.270;6.756;2023-03-15T01:05:02;57.27;;;53.27;;
2476;SDS011;1249;51.270;6.756;2023-03-15T01:07:31;90.17;;;83.63;;
2476;SDS011;1249;51.270;6.756;2023-03-15T01:09:58;54.20;;;50.30;;
2476;SDS011;1249;51.270;6.756;2023-03-15T01:12:26;39.20;;;36.33;;
2476;SDS011;1249;51.270;6.756;2023-03-15T01:14:53;82.17;;;76.20;;
2476;SDS011;1249;51.270;6.756;2023-03-15T01:17:20;52.10;;;48.33;;
2476;SDS011;1249;51.270;6.756;2023-03-15T01:19:48;59.87;;;55.73;;
2476;SDS011;1249;51.270;6.756;2023-03-15T01:22:15;49.30;;;45.83;;
2476;SDS011;1249;51.270;6.756;2023-03-15T01:24:43;71.93;;;65.73;;
2476;SDS011;1249;51.270;6.756;2023-03-15T01:27:10;85.63;;;80.00;;
2476;SDS011;1249;51.270;6.756;2023-03-15T01:29:37;80.90;;;75.47;;
2476;SDS011;1249;51.270;6.756;2023-03-15T01:32:04;61.30;;;56.07;;
2476;SDS011;1249;51.270;6.756;2023-03-15T01:34:31;84.37;;;77.73;;
2476;SDS011;1249;51.270;6.756;2023-03-15T01:36:58;59.70;;;55.73;;
2476;SDS011;1249;51.270;6.756;2023-03-15T01:39:26;87.63;;;81.57;;
2476;SDS011;1249;51.270;6.756;2023-03-15T01:41:55;83.80;;;78.13;;
2476;SDS011;1249;51.270;6.756;2023-03-15T01:44:21;66.13;;;61.73;;
2476;SDS011;1249;51.270;6.756;2023-03-15T01:46:48;88.77;;;82.70;;
2476;SDS011;1249;51.270;6.756;2023-03-15T01:49:16;80.80;;;74.27;;
2476;SDS011;1249;51.270;6.756;2023-03-15T01:51:49;77.53;;;72.63;;
2476;SDS011;1249;51.270;6.756;2023-03-15T01:54:19;69.13;;;63.90;;
2476;SDS011;1249;51.270;6.756;2023-03-15T01:56:51;77.60;;;72.87;;
2476;SDS011;1249;51.270;6.756;2023-03-15T01:59:25;87.00;;;81.00;;
2476;SDS011;1249;51.270;6.756;2023-03-15T02:01:56;54.97;;;51.23;;
2476;SDS011;1249;51.270;6.756;2023-03-15T02:04:24;82.20;;;77.40;;
2476;SDS011;1249;51.270;6.756;2023-03-15T02:06:56;53.43;;;50.07;;
2476;SDS011;1249;51.270;6.756;2023-03-15T02:09:27;78.60;;;72.73;;
2476;SDS011;1249;51.270;6.756;2023-03-15T02:12:02;50.27;;;46.80;;
2476;SDS011;1249;51.270;6.756;2023-03-15T02:14:30;63.70;;;58.47;;
2476;SDS011;1249;51.270;6.756;2023-03-15T02:16:58;72.87;;;68.73;;
2476;SDS011;1249;51.270;6.756;2023-03-15T02:19:29;77.77;;;70.00;;
2476;SDS011;1249;51.270;6.756;2023-03-15T02:22:05;81.23;;;75.77;;
2476;SDS011;1249;51.270;6.756;2023-03-15T02:24:41;62.13;;;57.63;;
2476;SDS011;1249;51.270;6.756;2023-03-15T02:27:19;66.83;;;61.80;;
2476;SDS011;1249;51.270;6.756;2023-03-15T02:29:48;61.07;;;57.13;;
2476;SDS011;1249;51.270;6.756;2023-03-15T02:32:15;59.73;;;56.73;;
2476;SDS011;1249;51.270;6.756;2023-03-15T02:34:42;68.33;;;64.27;;
2476;SDS011;1249;51.270;6.756;2023-03-15T02:37:09;59.47;;;55.20;;
2476;SDS011;1249;51.270;6.756;2023-03-15T02:39:36;77.73;;;72.07;;
2476;SDS011;1249;51.270;6.756;2023-03-15T02:42:02;67.37;;;61.30;;
2476;SDS011;1249;51.270;6.756;2023-03-15T02:44:32;54.67;;;50.70;;
2476;SDS011;1249;51.270;6.756;2023-03-15T02:47:02;39.77;;;36.90;;
2476;SDS011;1249;51.270;6.756;2023-03-15T02:49:31;43.17;;;39.80;;
2476;SDS011;1249;51.270;6.756;2023-03-15T02:52:02;82.10;;;77.10;;
2476;SDS011;1249;51.270;6.756;2023-03-15T02:54:29;73.83;;;67.83;;
2476;SDS011;1249;51.270;6.756;2023-03-15T02:56:58;81.53;;;75.40;;
2476;SDS011;1249;51.270;6.756;2023-03-15T02:59:25;74.17;;;69.20;;
2476;SDS011;1249;51.270;6.756;2023-03-15T03:01:53;78.43;;;72.30;;
2476;SDS011;1249;51.270;6.756;2023-03-15T03:04:20;58.20;;;54.97;;
2476;SDS011;1249;51.270;6.756;2023-03-15T03:06:46;68.10;;;62.30;;
2476;SDS011;1249;51.270;6.756;2023-03-15T03:09:13;76.33;;;71.13;;
2476;SDS011;1249;51.270;6.756;2023-03-15T03:11:40;82.73;;;76.90;;
2476;SDS011;1249;51.270;6.756;2023-03-15T03:14:07;65.83;;;61.03;;
2476;SDS011;1249;51.270;6.756;2023-03-15T03:16:33;64.07;;;60.13;;
2476;SDS011;1249;51.270;6.756;2023-03-15T03:19:02;56.43;;;52.43;;
2476;SDS011;1249;51.270;6.756;2023-03-15T03:21:28;78.90;;;73.10;;
2476;SDS011;1249;51.270;6.756;2023-03-15T03:23:55;97.30;;;91.43;;
2476;SDS011;1249;51.270;6.756;2023-03-15T03:26:22;81.07;;;75.63;;
2476;SDS011;1249;51.270;6.756;2023-03-15T03:28:52;75.37;;;70.13;;
2476;SDS011;1249;51.270;6.756;2023-03-15T03:31:20;69.07;;;64.10;;
2476;SDS011;1249;51.270;6.756;2023-03-15T03:33:48;61.90;;;57.00;;
2476;SDS011;1249;51.270;6.756;2023-03-15T03:36:17;47.90;;;44.33;;
2476;SDS011;1249;51.270;6.756;2023-03-15T03:38:44;59.83;;;54.33;;
2476;SDS011;1249;51.270;6.756;2023-03-15T03:41:12;68.97;;;63.10;;
2476;SDS011;1249;51.270;6.756;2023-03-15T03:43:39;66.80;;;62.40;;
2476;SDS011;1249;51.270;6.756;2023-03-15T03:46:06;52.50;;;48.97;;
2476;SDS011;1249;51.270;6.756;2023-03-15T03:48:33;57.07;;;53.50;;
2476;SDS011;1249;51.270;6.756;2023-03-15T03:51:00;82.13;;;76.70;;
2476;SDS011;1249;51.270;6.756;2023-03-15T03:53:28;59.47;;;55.07;;
2476;SDS011;1249;51.270;6.756;2023-03-15T03:55:55;39.27;;;36.13;;
2476;SDS011;1249;51.270;6.756;2023-03-15T03:58:22;68.67;;;63.50;;
2476;SDS011;1249;51.270;6.756;2023-03-15T04:00:49;78.47;;;72.17;;
2476;SDS011;1249;51.270;6.756;2023-03-15T04:03:18;70.50;;;65.93;;
2476;SDS011;1249;51.270;6.756;2023-03-15T04:05:51;76.63;;;71.93;;
2476;SDS011;1249;51.270;6.756;2023-03-15T04:08:18;62.53;;;56.87;;
2476;SDS011;1249;51.270;6.756;2023-03-15T04:10:49;106.30;;;98.47;;
2476;SDS011;1249;51.270;6.756;2023-03-15T04:13:17;78.90;;;73.67;;
2476;SDS011;1249;51.270;6.756;2023-03-15T04:15:44;64.53;;;60.50;;
2476;SDS011;1249;51.270;6.756;2023-03-15T04:18:10;68.60;;;64.03;;
2476;SDS011;1249;51.270;6.756;2023-03-15T04:20:37;90.73;;;84.67;;
2476;SDS011;1249;51.270;6.756;2023-03-15T04:23:10;51.77;;;47.90;;
2476;SDS011;1249;51.270;6.756;2023-03-15T04:25:37;66.67;;;62.47;;
2476;SDS011;1249;51.270;6.756;2023-03-15T04:28:06;92.73;;;87.33;;
2476;SDS011;1249;51.270;6.756;2023-03-15T04:30:34;80.97;;;74.43;;
2476;SDS011;1249;51.270;6.756;2023-03-15T04:33:02;84.43;;;79.07;;
2476;SDS011;1249;51.270;6.756;2023-03-15T04:35:30;87.97;;;80.57;;
2476;SDS011;1249;51.270;6.756;2023-03-15T04:37:58;77.13;;;72.27;;
2476;SDS011;1249;51.270;6.756;2023-03-15T04:40:25;90.10;;;83.80;;
2476;SDS011;1249;51.270;6.756;2023-03-15T04:42:52;68.37;;;64.20;;
2476;SDS011;1249;51.270;6.756;2023-03-15T04:45:22;86.03;;;79.80;;
2476;SDS011;1249;51.270;6.756;2023-03-15T04:47:49;80.90;;;75.73;;
2476;SDS011;1249;51.270;6.756;2023-03-15T04:50:16;62.17;;;57.53;;
2476;SDS011;1249;51.270;6.756;2023-03-15T04:52:44;66.40;;;61.73;;
2476;SDS011;1249;51.270;6.756;2023-03-15T04:55:11;69.20;;;64.23;;
2476;SDS011;1249;51.270;6.756;2023-03-15T04:57:38;65.97;;;61.13;;
2476;SDS011;1249;51.270;6.756;2023-03-15T05:00:05;85.17;;;79.03;;
2476;SDS011;1249;51.270;6.756;2023-03-15T05:02:35;61.37;;;56.70;;
2476;SDS011;1249;51.270;6.756;2023-03-15T05:05:05;88.90;;;83.40;;
2476;SDS011;1249;51.270;6.756;2023-03-15T05:07:33;75.13;;;69.97;;
2476;SDS011;1249;51.270;6.756;2023-03-15T05:10:00;58.60;;;54.27;;
2476;SDS011;1249;51.270;6.756;2023-03-15T05:12:27;52.10;;;48.73;;
2476;SDS011;1249;51.270;6.756;2023-03-15T05:14:54;95.43;;;87.50;;
2476;SDS011;1249;51.270;6.756;2023-03-15T05:17:20;58.67;;;54.80;;
2476;SDS011;1249;51.270;6.756;2023-03-15T05:19:48;96.70;;;89.97;;
2476;SDS011;1249;51.270;6.756;2023-03-15T05:22:15;88.20;;;82.17;;
2476;SDS011;1249;51.270;6.756;2023-03-15T05:24:42;76.20;;;70.03;;
2476;SDS011;1249;51.270;6.756;2023-03-15T05:27:09;82.20;;;75.67;;
2476;SDS011;1249;51.270;6.756;2023-03-15T05:29:37;65.73;;;61.30;;
2476;SDS011;1249;51.270;6.756;2023-03-15T05:32:04;66.07;;;62.33;;
2476;SDS011;1249;51.270;6.756;2023-03-15T05:34:31;75.87;;;70.00;;
2476;SDS011;1249;51.270;6.756;2023-03-15T05:36:59;67.27;;;62.17;;
2476;SDS011;1249;51.270;6.756;2023-03-15T05:39:26;67.70;;;62.70;;
2476;SDS011;1249;51.270;6.756;2023-03-15T05:41:53;60.93;;;56.67;;
2476;SDS011;1249;51.270;6.756;2023-03-15T05:44:20;53.67;;;49.20;;
2476;SDS011;1249;51.270;6.756;2023-03-15T05:46:48;70.57;;;63.97;;
2476;SDS011;1249;51.270;6.756;2023-03-15T05:49:14;52.80;;;49.10;;
2476;SDS011;1249;51.270;6.756;2023-03-15T05:51:41;49.00;;;45.17;;
2476;SDS011;1249;51.270;6.756;2023-03-15T05:54:09;71.10;;;65.77;;
2476;SDS011;1249;51.270;6.756;2023-03-15T05:56:36;66.07;;;60.77;;
2476;SDS011;1249;51.270;6.756;2023-03-15T05:59:03;68.40;;;64.23;;
2476;SDS011;1249;51.270;6.756;2023-03-15T06:01:29;50.80;;;47.20;;
2476;SDS011;1249;51.270;6.756;2023-03-15T06:03:56;58.70;;;55.07;;
2476;SDS011;1249;51.270;6.756;2023-03-15T06:06:23;61.93;;;57.97;;
2476;SDS011;1249;51.270;6.756;2023-03-15T06:08:52;77.77;;;71.23;;
2476;SDS011;1249;51.270;6.756;2023-03-15T06:11:20;91.27;;;84.00;;
2476;SDS011;1249;51.270;6.756;2023-03-15T06:13:47;97.00;;;91.40;;
2476;SDS011;1249;51.270;6.756;2023-03-15T06:16:13;84.70;;;78.40;;
2476;SDS011;1249;51.270;6.756;2023-03-15T06:18:40;58.77;;;54.30;;
2476;SDS011;1249;51.270;6.756;2023-03-15T06:21:07;63.20;;;58.87;;
2476;SDS011;1249;51.270;6.756;2023-03-15T06:23:34;73.13;;;67.47;;
2476;SDS011;1249;51.270;6.756;2023-03-15T06:26:00;52.10;;;48.47;;
2476;SDS011;1249;51.270;6.756;2023-03-15T06:28:28;75.07;;;69.90;;
2476;SDS011;1249;51.270;6.756;2023-03-15T06:30:55;68.03;;;62.33;;
2476;SDS011;1249;51.270;6.756;2023-03-15T06:33:22;62.87;;;58.53;;
2476;SDS011;1249;51.270;6.756;2023-03-15T06:35:49;80.03;;;74.43;;
2476;SDS011;1249;51.270;6.756;2023-03-15T06:38:16;77.00;;;72.23;;
2476;SDS011;1249;51.270;6.756;2023-03-15T06:40:42;74.20;;;69.80;;
2476;SDS011;1249;51.270;6.756;2023-03-15T06:43:09;108.97;;;101.53;;
2476;SDS011;1249;51.270;6.756;2023-03-15T06:45:43;76.87;;;71.50;;
2476;SDS011;1249;51.270;6.756;2023-03-15T06:48:10;79.67;;;74.87;;
2476;SDS011;1249;51.270;6.756;2023-03-15T06:50:37;64.33;;;60.33;;
2476;SDS011;1249;51.270;6.756;2023-03-15T06:53:04;86.37;;;79.93;;
2476;SDS011;1249;51.270;6.756;2023-03-15T06:55:31;91.77;;;85.90;;
2476;SDS011;1249;51.270;6.756;2023-03-15T06:57:58;83.17;;;77.97;;
2476;SDS011;1249;51.270;6.756;2023-03-15T07:00:24;86.90;;;80.47;;
2476;SDS011;1249;51.270;6.756;2023-03-15T07:02:53;61.20;;;56.83;;
2476;SDS011;1249;51.270;6.756;2023-03-15T07:05:19;64.50;;;60.20;;
2476;SDS011;1249;51.270;6.756;2023-03-15T07:07:46;55.87;;;51.50;;
2476;SDS011;1249;51.270;6.756;2023-03-15T07:10:13;73.47;;;68.10;;
2476;SDS011;1249;51.270;6.756;2023-03-15T07:12:40;62.37;;;57.87;;
2476;SDS011;1249;51.270;6.756;2023-03-15T07:15:07;69.27;;;64.33;;
2476;SDS011;1249;51.270;6.756;2023-03-15T07:17:34;67.17;;;61.90;;
2476;SDS011;1249;51.270;6.756;2023-03-15T07:20:03;63.70;;;59.23;;
2476;SDS011;1249;51.270;6.756;2023-03-15T07:22:30;88.93;;;83.47;;
2476;SDS011;1249;51.270;6.756;2023-03-15T07:24:57;86.27;;;78.97;;
2476;SDS011;1249;51.270;6.756;2023-03-15T07:27:24;79.47;;;74.07;;
2476;SDS011;1249;51.270;6.756;2023-03-15T07:29:51;103.73;;;97.20;;
2476;SDS011;1249;51.270;6.756;2023-03-15T07:32:19;63.03;;;58.80;;
2476;SDS011;1249;51.270;6.756;2023-03-15T07:34:46;58.70;;;55.37;;
2476;SDS011;1249;51.270;6.756;2023-03-15T07:37:14;83.60;;;76.70;;
2476;SDS011;1249;51.270;6.756;2023-03-15T07:39:41;84.80;;;78.67;;
2476;SDS011;1249;51.270;6.756;2023-03-15T07:42:08;54.20;;;49.17;;
2476;SDS011;1249;51.270;6.756;2023-03-15T07:44:35;92.77;;;86.77;;
2476;SDS011;1249;51.270;6.756;2023-03-15T07:47:02;69.00;;;65.00;;
2476;SDS011;1249;51.270;6.756;2023-03-15T07:49:29;65.23;;;60.57;;
2476;SDS011;1249;51.270;6.756;2023-03-15T07:51:58;76.87;;;71.13;;
2476;SDS011;1249;51.270;6.756;2023-03-15T07:54:26;83.27;;;77.60;;
2476;SDS011;1249;51.270;6.756;2023-03-15T07:56:55;66.03;;;60.27;;
2476;SDS011;1249;51.270;6.756;2023-03-15T07:59:22;64.87;;;59.47;;
2476;SDS011;1249;51.270;6.756;2023-03-15T08:01:49;99.33;;;93.13;;
2476;SDS011;1249;51.270;6.756;2023-03-15T08:04:15;79.73;;;73.53;;
2476;SDS011;1249;51.270;6.756;2023-03-15T08:06:42;51.10;;;37.80;;
2476;SDS011;1249;51.270;6.756;2023-03-15T08:09:09;49.60;;;31.17;;
2476;SDS011;1249;51.270;6.756;2023-03-15T08:11:37;66.27;;;59.93;;
2476;SDS011;1249;51.270;6.756;2023-03-15T08:14:04;48.20;;;34.67;;
2476;SDS011;1249;51.270;6.756;2023-03-15T08:16:30;49.93;;;39.23;;
2476;SDS011;1249;51.270;6.756;2023-03-15T08:18:57;51.97;;;41.43;;
2476;SDS011;1249;51.270;6.756;2023-03-15T08:21:24;52.07;;;42.43;;
2476;SDS011;1249;51.270;6.756;2023-03-15T08:23:51;50.57;;;40.97;;
2476;SDS011;1249;51.270;6.756;2023-03-15T08:26:17;58.23;;;52.07;;
2476;SDS011;1249;51.270;6.756;2023-03-15T08:28:46;58.33;;;51.97;;
2476;SDS011;1249;51.270;6.756;2023-03-15T08:31:12;74.17;;;68.47;;
2476;SDS011;1249;51.270;6.756;2023-03-15T08:33:39;65.93;;;60.73;;
2476;SDS011;1249;51.270;6.756;2023-03-15T08:36:06;83.27;;;78.43;;
2476;SDS011;1249;51.270;6.756;2023-03-15T08:38:33;85.17;;;79.67;;
2476;SDS011;1249;51.270;6.756;2023-03-15T08:41:00;65.97;;;61.00;;
2476;SDS011;1249;51.270;6.756;2023-03-15T08:43:27;82.77;;;77.43;;
2476;SDS011;1249;51.270;6.756;2023-03-15T08:45:58;58.57;;;55.23;;
2476;SDS011;1249;51.270;6.756;2023-03-15T08:48:25;82.50;;;77.53;;
2476;SDS011;1249;51.270;6.756;2023-03-15T08:50:52;68.40;;;64.23;;
2476;SDS011;1249;51.270;6.756;2023-03-15T08:53:19;64.03;;;60.37;;
2476;SDS011;1249;51.270;6.756;2023-03-15T08:55:46;70.10;;;65.40;;
2476;SDS011;1249;51.270;6.756;2023-03-15T08:58:13;75.63;;;70.83;;
2476;SDS011;1249;51.270;6.756;2023-03-15T09:00:40;48.40;;;44.87;;
2476;SDS011;1249;51.270;6.756;2023-03-15T09:03:08;62.63;;;58.97;;
2476;SDS011;1249;51.270;6.756;2023-03-15T09:05:35;46.20;;;43.93;;
2476;SDS011;1249;51.270;6.756;2023-03-15T09:08:02;50.27;;;47.40;;
2476;SDS011;1249;51.270;6.756;2023-03-15T09:10:29;61.23;;;57.60;;
2476;SDS011;1249;51.270;6.756;2023-03-15T09:12:55;60.03;;;56.43;;
2476;SDS011;1249;51.270;6.756;2023-03-15T09:15:22;72.67;;;68.10;;
2476;SDS011;1249;51.270;6.756;2023-03-15T09:17:49;49.23;;;46.43;;
2476;SDS011;1249;51.270;6.756;2023-03-15T09:20:18;56.03;;;52.77;;
2476;SDS011;1249;51.270;6.756;2023-03-15T09:22:49;63.63;;;59.93;;
2476;SDS011;1249;51.270;6.756;2023-03-15T09:25:17;59.30;;;56.20;;
2476;SDS011;1249;51.270;6.756;2023-03-15T09:27:44;40.87;;;38.47;;
2476;SDS011;1249;51.270;6.756;2023-03-15T09:30:11;69.67;;;65.50;;
2476;SDS011;1249;51.270;6.756;2023-03-15T09:32:41;70.07;;;65.80;;
2476;SDS011;1249;51.270;6.756;2023-03-15T09:35:11;45.83;;;43.30;;
2476;SDS011;1249;51.270;6.756;2023-03-15T09:37:41;51.10;;;48.13;;
2476;SDS011;1249;51.270;6.756;2023-03-15T09:40:11;58.63;;;53.53;;
2476;SDS011;1249;51.270;6.756;2023-03-15T09:42:47;53.80;;;45.23;;
2476;SDS011;1249;51.270;6.756;2023-03-15T09:45:23;58.67;;;54.67;;
2476;SDS011;1249;51.270;6.756;2023-03-15T09:47:58;55.00;;;51.03;;
2476;SDS011;1249;51.270;6.756;2023-03-15T09:50:30;57.07;;;52.80;;
2476;SDS011;1249;51.270;6.756;2023-03-15T09:53:03;62.90;;;58.73;;
2476;SDS011;1249;51.270;6.756;2023-03-15T09:55:34;50.50;;;47.17;;
2476;SDS011;1249;51.270;6.756;2023-03-15T09:58:02;64.87;;;59.97;;
2476;SDS011;1249;51.270;6.756;2023-03-15T10:00:32;66.80;;;61.97;;
2476;SDS011;1249;51.270;6.756;2023-03-15T10:03:02;66.60;;;61.83;;
2476;SDS011;1249;51.270;6.756;2023-03-15T10:05:34;57.73;;;54.17;;
2476;SDS011;1249;51.270;6.756;2023-03-15T10:08:09;47.33;;;44.10;;
2476;SDS011;1249;51.270;6.756;2023-03-15T10:10:38;59.40;;;55.47;;
2476;SDS011;1249;51.270;6.756;2023-03-15T10:13:18;65.43;;;61.80;;
2476;SDS011;1249;51.270;6.756;2023-03-15T10:16:07;56.10;;;53.07;;
2476;SDS011;1249;51.270;6.756;2023-03-15T10:18:49;58.87;;;55.77;;
2476;SDS011;1249;51.270;6.756;2023-03-15T10:21:29;85.47;;;81.10;;
2476;SDS011;1249;51.270;6.756;2023-03-15T10:24:01;75.83;;;71.20;;
2476;SDS011;1249;51.270;6.756;2023-03-15T10:26:32;83.37;;;78.40;;
2476;SDS011;1249;51.270;6.756;2023-03-15T10:29:02;72.90;;;68.70;;
2476;SDS011;1249;51.270;6.756;2023-03-15T10:31:37;71.70;;;67.60;;
2476;SDS011;1249;51.270;6.756;2023-03-15T10:34:07;62.63;;;58.87;;
2476;SDS011;1249;51.270;6.756;2023-03-15T10:36:35;69.13;;;64.13;;
2476;SDS011;1249;51.270;6.756;2023-03-15T10:39:03;71.27;;;66.93;;
2476;SDS011;1249;51.270;6.756;2023-03-15T10:41:35;45.27;;;42.73;;
2476;SDS011;1249;51.270;6.756;2023-03-15T10:44:05;59.20;;;54.53;;
2476;SDS011;1249;51.270;6.756;2023-03-15T10:46:36;47.87;;;44.90;;
2476;SDS011;1249;51.270;6.756;2023-03-15T10:49:07;57.93;;;54.57;;
2476;SDS011;1249;51.270;6.756;2023-03-15T10:51:37;65.50;;;62.30;;
2476;SDS011;1249;51.270;6.756;2023-03-15T10:54:07;66.03;;;62.20;;
2476;SDS011;1249;51.270;6.756;2023-03-15T10:56:41;92.57;;;88.57;;
2476;SDS011;1249;51.270;6.756;2023-03-15T10:59:13;97.93;;;91.57;;
2476;SDS011;1249;51.270;6.756;2023-03-15T11:01:44;95.13;;;89.27;;
2476;SDS011;1249;51.270;6.756;2023-03-15T11:04:14;103.63;;;98.57;;
2476;SDS011;1249;51.270;6.756;2023-03-15T11:06:43;96.40;;;91.17;;
2476;SDS011;1249;51.270;6.756;2023-03-15T11:09:14;85.60;;;80.23;;
2476;SDS011;1249;51.270;6.756;2023-03-15T11:11:53;100.23;;;95.03;;
2476;SDS011;1249;51.270;6.756;2023-03-15T11:14:24;80.10;;;75.67;;
2476;SDS011;1249;51.270;6.756;2023-03-15T11:16:57;64.63;;;60.93;;
2476;SDS011;1249;51.270;6.756;2023-03-15T11:19:25;88.30;;;83.60;;
2476;SDS011;1249;51.270;6.756;2023-03-15T11:21:53;64.70;;;61.60;;
2476;SDS011;1249;51.270;6.756;2023-03-15T11:24:26;60.87;;;57.20;;
2476;SDS011;1249;51.270;6.756;2023-03-15T11:26:56;53.07;;;49.77;;
2476;SDS011;1249;51.270;6.756;2023-03-15T11:29:26;46.90;;;43.67;;
2476;SDS011;1249;51.270;6.756;2023-03-15T11:31:55;50.27;;;46.17;;
2476;SDS011;1249;51.270;6.756;2023-03-15T11:34:26;44.00;;;41.17;;
2476;SDS011;1249;51.270;6.756;2023-03-15T11:37:02;55.70;;;51.90;;
2476;SDS011;1249;51.270;6.756;2023-03-15T11:39:38;42.97;;;39.63;;
2476;SDS011;1249;51.270;6.756;2023-03-15T11:42:09;46.37;;;43.60;;
2476;SDS011;1249;51.270;6.756;2023-03-15T11:44:42;55.13;;;52.17;;
2476;SDS011;1249;51.270;6.756;2023-03-15T11:47:12;45.43;;;42.33;;
2476;SDS011;1249;51.270;6.756;2023-03-15T11:49:46;44.90;;;42.10;;
2476;SDS011;1249;51.270;6.756;2023-03-15T11:52:16;54.30;;;50.93;;
2476;SDS011;1249;51.270;6.756;2023-03-15T11:54:45;54.13;;;50.10;;
2476;SDS011;1249;51.270;6.756;2023-03-15T12:00:14;48.30;;;45.00;;
2476;SDS011;1249;51.270;6.756;2023-03-15T12:02:51;53.57;;;50.17;;
2476;SDS011;1249;51.270;6.756;2023-03-15T12:08:20;54.30;;;50.80;;
2476;SDS011;1249;51.270;6.756;2023-03-15T12:10:51;44.67;;;42.00;;
2476;SDS011;1249;51.270;6.756;2023-03-15T12:13:19;35.53;;;33.07;;
2476;SDS011;1249;51.270;6.756;2023-03-15T12:15:49;49.03;;;46.23;;
2476;SDS011;1249;51.270;6.756;2023-03-15T12:18:17;38.53;;;36.23;;
2476;SDS011;1249;51.270;6.756;2023-03-15T12:20:56;45.93;;;42.33;;
2476;SDS011;1249;51.270;6.756;2023-03-15T12:23:37;49.03;;;45.97;;
2476;SDS011;1249;51.270;6.756;2023-03-15T12:26:25;56.83;;;52.73;;
2476;SDS011;1249;51.270;6.756;2023-03-15T12:29:01;35.97;;;33.87;;
2476;SDS011;1249;51.270;6.756;2023-03-15T12:31:42;33.90;;;32.00;;
2476;SDS011;1249;51.270;6.756;2023-03-15T12:34:12;29.87;;;27.77;;
2476;SDS011;1249;51.270;6.756;2023-03-15T12:36:47;44.00;;;41.27;;
2476;SDS011;1249;51.270;6.756;2023-03-15T12:39:19;50.83;;;47.90;;
2476;SDS011;1249;51.270;6.756;2023-03-15T12:42:02;38.57;;;36.03;;
2476;SDS011;1249;51.270;6.756;2023-03-15T12:44:36;46.00;;;43.00;;
2476;SDS011;1249;51.270;6.756;2023-03-15T12:47:04;36.67;;;34.63;;
2476;SDS011;1249;51.270;6.756;2023-03-15T12:49:33;41.13;;;38.77;;
2476;SDS011;1249;51.270;6.756;2023-03-15T12:52:03;46.03;;;43.17;;
2476;SDS011;1249;51.270;6.756;2023-03-15T12:54:38;35.13;;;32.90;;
2476;SDS011;1249;51.270;6.756;2023-03-15T12:57:10;47.13;;;44.00;;
2476;SDS011;1249;51.270;6.756;2023-03-15T12:59:47;30.10;;;28.33;;
2476;SDS011;1249;51.270;6.756;2023-03-15T13:02:28;33.10;;;31.40;;
2476;SDS011;1249;51.270;6.756;2023-03-15T13:04:58;37.20;;;34.20;;
2476;SDS011;1249;51.270;6.756;2023-03-15T13:07:27;35.80;;;33.73;;
2476;SDS011;1249;51.270;6.756;2023-03-15T13:13:09;27.20;;;25.47;;
2476;SDS011;1249;51.270;6.756;2023-03-15T13:16:00;37.37;;;35.30;;
2476;SDS011;1249;51.270;6.756;2023-03-15T13:18:41;34.70;;;32.20;;
2476;SDS011;1249;51.270;6.756;2023-03-15T13:21:17;42.00;;;39.50;;
2476;SDS011;1249;51.270;6.756;2023-03-15T13:23:50;26.20;;;24.53;;
2476;SDS011;1249;51.270;6.756;2023-03-15T13:26:23;46.53;;;43.33;;
2476;SDS011;1249;51.270;6.756;2023-03-15T13:29:02;49.97;;;46.80;;
2476;SDS011;1249;51.270;6.756;2023-03-15T13:31:38;37.70;;;35.70;;
2476;SDS011;1249;51.270;6.756;2023-03-15T13:34:09;45.60;;;42.67;;
2476;SDS011;1249;51.270;6.756;2023-03-15T13:36:39;38.43;;;36.23;;
2476;SDS011;1249;51.270;6.756;2023-03-15T13:39:09;32.70;;;30.90;;
2476;SDS011;1249;51.270;6.756;2023-03-15T13:41:39;37.60;;;35.20;;
2476;SDS011;1249;51.270;6.756;2023-03-15T13:44:11;44.23;;;41.73;;
2476;SDS011;1249;51.270;6.756;2023-03-15T13:46:42;34.70;;;32.77;;
2476;SDS011;1249;51.270;6.756;2023-03-15T13:49:10;37.60;;;35.90;;
2476;SDS011;1249;51.270;6.756;2023-03-15T13:51:37;40.27;;;37.57;;
2476;SDS011;1249;51.270;6.756;2023-03-15T13:54:05;28.37;;;26.80;;
2476;SDS011;1249;51.270;6.756;2023-03-15T13:56:34;34.53;;;32.37;;
2476;SDS011;1249;51.270;6.756;2023-03-15T13:59:07;34.30;;;32.30;;
2476;SDS011;1249;51.270;6.756;2023-03-15T14:01:37;26.83;;;25.17;;
2476;SDS011;1249;51.270;6.756;2023-03-15T14:04:07;33.43;;;31.60;;
2476;SDS011;1249;51.270;6.756;2023-03-15T14:06:40;32.47;;;30.03;;
2476;SDS011;1249;51.270;6.756;2023-03-15T14:09:14;38.40;;;35.90;;
2476;SDS011;1249;51.270;6.756;2023-03-15T14:11:43;40.13;;;38.10;;
2476;SDS011;1249;51.270;6.756;2023-03-15T14:14:18;39.23;;;36.70;;
2476;SDS011;1249;51.270;6.756;2023-03-15T14:16:49;34.57;;;32.40;;
2476;SDS011;1249;51.270;6.756;2023-03-15T14:19:17;44.23;;;41.27;;
2476;SDS011;1249;51.270;6.756;2023-03-15T14:21:46;37.00;;;34.77;;
2476;SDS011;1249;51.270;6.756;2023-03-15T14:24:18;32.63;;;30.90;;
2476;SDS011;1249;51.270;6.756;2023-03-15T14:26:51;28.07;;;26.37;;
2476;SDS011;1249;51.270;6.756;2023-03-15T14:29:21;46.50;;;44.07;;
2476;SDS011;1249;51.270;6.756;2023-03-15T14:31:57;40.33;;;37.87;;
2476;SDS011;1249;51.270;6.756;2023-03-15T14:34:30;31.47;;;29.27;;
2476;SDS011;1249;51.270;6.756;2023-03-15T14:36:59;54.03;;;50.93;;
2476;SDS011;1249;51.270;6.756;2023-03-15T14:39:29;41.93;;;39.33;;
2476;SDS011;1249;51.270;6.756;2023-03-15T14:42:01;41.83;;;38.87;;
2476;SDS011;1249;51.270;6.756;2023-03-15T14:44:28;36.30;;;34.03;;
2476;SDS011;1249;51.270;6.756;2023-03-15T14:46:56;49.40;;;46.87;;
2476;SDS011;1249;51.270;6.756;2023-03-15T14:49:25;57.50;;;54.07;;
2476;SDS011;1249;51.270;6.756;2023-03-15T14:51:54;32.40;;;30.60;;
2476;SDS011;1249;51.270;6.756;2023-03-15T14:54:24;49.60;;;46.50;;
2476;SDS011;1249;51.270;6.756;2023-03-15T14:56:52;37.30;;;35.33;;
2476;SDS011;1249;51.270;6.756;2023-03-15T14:59:19;30.93;;;29.17;;
2476;SDS011;1249;51.270;6.756;2023-03-15T15:01:47;40.27;;;37.80;;
2476;SDS011;1249;51.270;6.756;2023-03-15T15:04:17;36.83;;;34.00;;
2476;SDS011;1249;51.270;6.756;2023-03-15T15:06:45;27.80;;;26.30;;
2476;SDS011;1249;51.270;6.756;2023-03-15T15:09:16;51.27;;;47.97;;